Time;durP1;ratioP1;P1;durP2;ratioP2;P2;SDS_P1;SDS_P2;PMS_P1;PMS_P2;Temp;Humidity;BMP_temperature;BMP_pressure;BME280_temperature;BME280_humidity;BME280_pressure;Samples;Min_cycle;Max_cycle;Signal;HPM_P1;HPM_P2
2022/03/10 00:01:09;;;;;;;22.73;13.15;;;;;;;0.98;100.00;102404.09;4923717;28;20070;-70
2022/03/10 00:03:35;;;;;;;23.23;14.05;;;;;;;0.89;100.00;102410.94;4909042;28;20051;-70
2022/03/10 00:06:00;;;;;;;24.48;12.98;;;;;;;0.69;100.00;102407.06;4922536;28;20035;-70
2022/03/10 00:08:25;;;;;;;24.67;14.27;;;;;;;0.43;100.00;102404.47;4900297;28;20113;-70
2022/03/10 00:10:51;;;;;;;22.92;13.10;;;;;;;0.24;100.00;102415.50;4911396;28;20751;-70
2022/03/10 00:13:16;;;;;;;25.95;15.02;;;;;;;0.03;100.00;102411.69;4911327;28;20806;-70
2022/03/10 00:15:42;;;;;;;26.92;14.70;;;;;;;-0.06;100.00;102409.69;4922170;28;20051;-70
2022/03/10 00:18:07;;;;;;;31.10;14.15;;;;;;;-0.12;100.00;102418.91;4893559;28;20169;-70
2022/03/10 00:20:33;;;;;;;24.23;14.32;;;;;;;-0.22;100.00;102411.69;4903755;28;20063;-70
2022/03/10 00:22:58;;;;;;;27.17;13.93;;;;;;;-0.31;100.00;102419.31;4922557;28;20259;-70
2022/03/10 00:25:24;;;;;;;25.77;14.25;;;;;;;-0.43;100.00;102412.16;4907650;28;20843;-70
2022/03/10 00:27:50;;;;;;;25.05;15.45;;;;;;;-0.58;100.00;102410.56;4921919;28;20061;-70
2022/03/10 00:30:16;;;;;;;24.52;15.02;;;;;;;-0.69;100.00;102405.97;4909122;28;20054;-70
2022/03/10 00:32:46;;;;;;;29.52;15.77;;;;;;;-0.77;100.00;102406.50;4911802;28;20097;-70
2022/03/10 00:35:15;;;;;;;30.65;15.85;;;;;;;-0.86;100.00;102412.38;4906726;28;20546;-71
2022/03/10 00:37:41;;;;;;;29.40;14.85;;;;;;;-1.01;100.00;102414.22;4921689;28;20031;-70
2022/03/10 00:40:07;;;;;;;24.05;15.68;;;;;;;-1.19;100.00;102415.41;4922995;28;20127;-70
2022/03/10 00:42:37;;;;;;;33.20;15.73;;;;;;;-1.22;100.00;102423.53;4908253;28;20062;-68
2022/03/10 00:45:03;;;;;;;29.75;16.50;;;;;;;-1.31;100.00;102417.00;4922438;28;20211;-68
2022/03/10 00:47:28;;;;;;;27.80;15.70;;;;;;;-1.22;100.00;102415.59;4906567;28;20054;-68
2022/03/10 00:49:54;;;;;;;30.13;16.70;;;;;;;-1.16;100.00;102419.63;4922119;28;20046;-68
2022/03/10 00:52:20;;;;;;;28.02;16.88;;;;;;;-1.11;100.00;102423.69;4904408;28;20095;-68
2022/03/10 00:54:45;;;;;;;29.35;16.17;;;;;;;-0.97;100.00;102420.16;4922024;28;20045;-70
2022/03/10 00:57:11;;;;;;;32.15;17.13;;;;;;;-0.99;100.00;102424.69;4905915;28;20541;-70
2022/03/10 00:59:36;;;;;;;25.48;15.55;;;;;;;-1.02;100.00;102430.16;4906645;28;20382;-70
2022/03/10 01:02:01;;;;;;;28.52;16.98;;;;;;;-1.06;100.00;102428.69;4921920;28;20041;-68
2022/03/10 01:04:27;;;;;;;33.70;17.35;;;;;;;-1.15;100.00;102424.84;4905419;28;20468;-68
2022/03/10 01:06:52;;;;;;;29.23;15.88;;;;;;;-1.18;100.00;102417.09;4922245;28;20042;-68
2022/03/10 01:09:18;;;;;;;30.92;16.88;;;;;;;-1.15;100.00;102421.34;4905775;28;20051;-70
2022/03/10 01:11:43;;;;;;;35.03;17.75;;;;;;;-1.15;100.00;102421.34;4921902;28;20035;-70
2022/03/10 01:14:08;;;;;;;33.03;17.45;;;;;;;-1.15;100.00;102421.34;4906325;28;20075;-69
2022/03/10 01:16:34;;;;;;;32.38;17.75;;;;;;;-1.12;100.00;102426.41;4921005;28;20034;-70
2022/03/10 01:18:59;;;;;;;31.63;17.42;;;;;;;-0.91;100.00;102421.53;4916995;28;21120;-70
2022/03/10 01:21:25;;;;;;;27.67;17.05;;;;;;;-0.67;100.00;102419.09;4915998;28;20142;-69
2022/03/10 01:23:50;;;;;;;26.63;16.27;;;;;;;-0.57;100.00;102417.53;4921024;28;20113;-70
2022/03/10 01:26:16;;;;;;;26.20;15.75;;;;;;;-0.58;100.00;102415.84;4906027;28;20051;-71
2022/03/10 01:28:41;;;;;;;28.60;15.63;;;;;;;-0.65;100.00;102403.97;4926125;28;20043;-71
2022/03/10 01:31:06;;;;;;;32.03;17.95;;;;;;;-0.61;100.00;102416.06;4889926;28;20059;-70
2022/03/10 01:33:33;;;;;;;25.60;15.85;;;;;;;-0.69;100.00;102397.19;4921994;28;20062;-70
2022/03/10 01:35:58;;;;;;;29.55;16.88;;;;;;;-0.54;100.00;102406.75;4906102;28;20597;-70
2022/03/10 01:38:24;;;;;;;27.65;16.48;;;;;;;-0.40;100.00;102395.25;4922680;28;20119;-70
2022/03/10 01:40:49;;;;;;;30.90;15.75;;;;;;;-0.39;100.00;102400.41;4921664;28;20479;-70
2022/03/10 01:43:14;;;;;;;30.63;15.23;;;;;;;-0.37;100.00;102398.53;4890018;28;20745;-70
2022/03/10 01:45:40;;;;;;;33.22;16.92;;;;;;;-0.31;100.00;102403.41;4922271;28;20077;-70
2022/03/10 01:48:05;;;;;;;27.23;15.10;;;;;;;-0.28;100.00;102399.69;4898497;28;20054;-70
2022/03/10 01:50:31;;;;;;;28.38;16.88;;;;;;;-0.19;100.00;102399.06;4921535;28;20038;-68
2022/03/10 01:52:56;;;;;;;25.80;15.43;;;;;;;-0.15;100.00;102391.78;4905055;28;20057;-70
2022/03/10 01:55:22;;;;;;;25.67;15.13;;;;;;;-0.14;100.00;102401.41;4921255;28;20146;-70
2022/03/10 01:57:48;;;;;;;25.13;15.07;;;;;;;-0.16;100.00;102393.56;4890349;28;20046;-70
2022/03/10 02:00:15;;;;;;;37.75;15.27;;;;;;;-0.25;100.00;102405.66;4920731;28;20047;-69
2022/03/10 02:02:41;;;;;;;26.08;15.70;;;;;;;-0.33;100.00;102404.47;4911598;28;20039;-70
2022/03/10 02:05:06;;;;;;;29.33;15.75;;;;;;;-0.36;100.00;102400.22;4881210;28;20117;-70
2022/03/10 02:10:16;;;;;;;24.60;15.23;;;;;;;-0.37;100.00;102392.38;4903781;28;20072;-70
2022/03/10 02:12:42;;;;;;;26.45;14.60;;;;;;;-0.42;100.00;102399.78;4920378;28;20513;-70
2022/03/10 02:18:06;;;;;;;26.70;15.50;;;;;;;-0.60;100.00;102396.56;4918013;28;20035;-70
2022/03/10 02:20:32;;;;;;;26.45;15.05;;;;;;;-0.76;100.00;102402.03;4903785;28;20058;-70
2022/03/10 02:22:58;;;;;;;28.98;16.05;;;;;;;-0.90;100.00;102404.75;4920739;28;20184;-70
2022/03/10 02:25:25;;;;;;;27.70;15.23;;;;;;;-0.99;100.00;102408.81;4902695;28;20064;-70
2022/03/10 02:27:56;;;;;;;26.50;15.43;;;;;;;-1.09;100.00;102405.06;4918575;28;20059;-70
2022/03/10 02:30:23;;;;;;;27.55;16.45;;;;;;;-1.11;100.00;102414.91;4919455;28;20066;-70
2022/03/10 02:32:49;;;;;;;27.65;15.98;;;;;;;-0.99;100.00;102422.03;4903787;28;20043;-70
2022/03/10 02:35:15;;;;;;;30.92;15.82;;;;;;;-1.02;100.00;102411.66;4908741;28;20138;-70
2022/03/10 02:37:41;;;;;;;32.08;16.65;;;;;;;-0.99;100.00;102411.47;4902380;28;20062;-69
2022/03/10 02:40:08;;;;;;;30.95;15.68;;;;;;;-0.96;100.00;102411.28;4922053;28;20166;-68
2022/03/10 02:42:34;;;;;;;30.42;16.30;;;;;;;-1.05;100.00;102406.59;4907892;28;20086;-68
2022/03/10 02:45:00;;;;;;;32.53;16.65;;;;;;;-1.21;100.00;102419.94;4919672;28;20031;-70
2022/03/10 02:47:25;;;;;;;28.33;16.42;;;;;;;-1.39;100.00;102421.94;4904630;28;20063;-70
2022/03/10 02:49:50;;;;;;;28.13;16.98;;;;;;;-1.59;100.00;102415.25;4920384;28;23633;-70
2022/03/10 02:52:16;;;;;;;27.45;16.38;;;;;;;-1.70;100.00;102413.28;4920270;28;20763;-70
2022/03/10 02:54:43;;;;;;;30.05;16.15;;;;;;;-1.81;100.00;102415.72;4903652;28;20080;-70
2022/03/10 02:57:08;;;;;;;29.15;16.98;;;;;;;-1.80;100.00;102419.22;4918402;28;20042;-70
2022/03/10 02:59:34;;;;;;;33.42;17.92;;;;;;;-1.89;100.00;102415.38;4916612;28;20942;-70
2022/03/10 03:01:59;;;;;;;29.38;17.70;;;;;;;-1.98;100.00;102413.28;4902891;28;20027;-70
2022/03/10 03:04:25;;;;;;;35.13;19.30;;;;;;;-2.02;100.00;102414.41;4904239;28;20070;-70
2022/03/10 03:06:51;;;;;;;31.05;18.30;;;;;;;-2.07;100.00;102409.41;4924895;28;21151;-70
2022/03/10 03:09:17;;;;;;;28.75;16.58;;;;;;;-2.17;100.00;102419.66;4916667;28;20042;-70
2022/03/10 03:11:42;;;;;;;32.90;18.48;;;;;;;-2.29;100.00;102412.47;4924087;28;20050;-70
2022/03/10 03:14:08;;;;;;;35.75;18.48;;;;;;;-2.37;100.00;102405.94;4920812;28;20469;-70
2022/03/10 03:16:34;;;;;;;35.80;18.27;;;;;;;-2.40;100.00;102406.97;4908171;28;24822;-68
2022/03/10 03:18:59;;;;;;;30.83;18.40;;;;;;;-2.36;100.00;102410.28;4923950;28;20039;-69
2022/03/10 03:21:25;;;;;;;33.63;19.45;;;;;;;-2.36;100.00;102411.13;4898145;28;20069;-68
2022/03/10 03:23:50;;;;;;;38.90;19.75;;;;;;;-2.41;100.00;102413.19;4911529;28;20066;-68
2022/03/10 03:26:16;;;;;;;36.78;19.42;;;;;;;-2.39;100.00;102416.56;4910606;28;20058;-69
2022/03/10 03:28:43;;;;;;;32.78;18.85;;;;;;;-2.19;100.00;102418.88;4923196;28;20036;-68
2022/03/10 03:31:09;;;;;;;36.00;18.95;;;;;;;-1.97;100.00;102418.44;4927371;28;20047;-68
2022/03/10 03:33:35;;;;;;;32.83;18.30;;;;;;;-1.85;100.00;102419.50;4914992;28;20039;-68
2022/03/10 03:36:01;;;;;;;34.70;19.33;;;;;;;-1.90;100.00;102413.66;4928437;28;22656;-68
2022/03/10 03:38:27;;;;;;;32.20;18.35;;;;;;;-1.89;100.00;102410.09;4901380;28;20051;-68
2022/03/10 03:40:52;;;;;;;34.17;19.00;;;;;;;-1.82;100.00;102416.69;4924555;28;20573;-68
2022/03/10 03:43:17;;;;;;;33.80;19.38;;;;;;;-1.78;100.00;102423.47;4908005;28;20629;-68
2022/03/10 03:45:43;;;;;;;38.10;19.83;;;;;;;-1.73;100.00;102421.38;4923301;28;20570;-68
2022/03/10 03:48:08;;;;;;;38.13;21.58;;;;;;;-1.62;100.00;102422.53;4909391;28;20145;-68
2022/03/10 03:50:34;;;;;;;38.00;19.80;;;;;;;-1.55;100.00;102418.56;4905383;28;21080;-68
2022/03/10 03:52:59;;;;;;;39.95;20.70;;;;;;;-1.44;100.00;102426.66;4921402;28;20038;-68
2022/03/10 03:55:25;;;;;;;33.50;19.73;;;;;;;-1.29;100.00;102431.00;4892100;28;20162;-68
2022/03/10 03:57:50;;;;;;;40.65;19.70;;;;;;;-1.17;100.00;102436.44;4906017;28;20083;-68
2022/03/10 04:00:16;;;;;;;34.50;18.85;;;;;;;-1.08;100.00;102438.53;4905965;28;20170;-68
2022/03/10 04:02:42;;;;;;;32.85;17.67;;;;;;;-0.97;100.00;102428.94;4937481;28;20081;-68
2022/03/10 04:05:08;;;;;;;33.90;18.25;;;;;;;-0.86;100.00;102438.81;4889950;28;20058;-68
2022/03/10 04:07:34;;;;;;;32.55;18.63;;;;;;;-0.84;100.00;102436.06;4922000;28;20039;-68
2022/03/10 04:10:00;;;;;;;32.08;17.60;;;;;;;-0.77;100.00;102445.34;4915042;28;20503;-68
2022/03/10 04:12:26;;;;;;;35.97;17.65;;;;;;;-0.77;100.00;102443.53;4922542;28;20039;-68
2022/03/10 04:14:51;;;;;;;28.38;16.75;;;;;;;-0.80;100.00;102440.25;4922939;28;20126;-68
2022/03/10 04:17:16;;;;;;;30.65;17.52;;;;;;;-0.85;100.00;102447.59;4908419;28;20062;-68
2022/03/10 04:19:42;;;;;;;30.00;17.10;;;;;;;-0.95;100.00;102452.63;4923555;28;20043;-68
2022/03/10 04:22:07;;;;;;;29.20;16.90;;;;;;;-1.12;100.00;102464.31;4906948;28;20050;-68
2022/03/10 04:24:33;;;;;;;30.45;17.13;;;;;;;-1.26;100.00;102461.69;4922535;28;22727;-68
2022/03/10 04:26:58;;;;;;;30.48;17.23;;;;;;;-1.41;100.00;102455.53;4906081;28;21044;-68
2022/03/10 04:29:24;;;;;;;29.63;16.88;;;;;;;-1.49;100.00;102455.19;4908149;28;20049;-68
2022/03/10 04:31:49;;;;;;;32.85;17.33;;;;;;;-1.54;100.00;102463.41;4906537;28;20051;-68
2022/03/10 04:34:15;;;;;;;35.53;17.42;;;;;;;-1.54;100.00;102458.13;4922134;28;20186;-68
2022/03/10 04:36:40;;;;;;;29.23;17.33;;;;;;;-1.55;100.00;102463.47;4922084;28;20053;-68
2022/03/10 04:39:06;;;;;;;31.20;17.73;;;;;;;-1.55;100.00;102472.25;4920362;28;20055;-68
2022/03/10 04:41:33;;;;;;;30.02;16.60;;;;;;;-1.60;100.00;102469.06;4921795;28;20038;-68
2022/03/10 04:43:59;;;;;;;31.05;16.95;;;;;;;-1.71;100.00;102472.34;4898857;28;20158;-68
2022/03/10 04:46:25;;;;;;;27.77;15.38;;;;;;;-1.95;100.00;102468.53;4925365;28;20043;-68
2022/03/10 04:48:50;;;;;;;30.17;17.27;;;;;;;-2.22;100.00;102471.88;4903030;28;20057;-68
2022/03/10 04:51:16;;;;;;;28.85;17.25;;;;;;;-2.37;100.00;102456.09;4920923;28;20101;-68
2022/03/10 04:53:41;;;;;;;29.25;16.58;;;;;;;-2.35;100.00;102465.63;4907175;28;22232;-69
2022/03/10 04:56:07;;;;;;;29.63;17.42;;;;;;;-2.41;100.00;102465.97;4922296;28;20039;-68
2022/03/10 04:58:33;;;;;;;29.92;16.80;;;;;;;-2.57;100.00;102465.16;4920943;28;20735;-68
2022/03/10 05:00:58;;;;;;;32.05;18.10;;;;;;;-2.72;100.00;102457.16;4906877;28;20105;-68
2022/03/10 05:03:23;;;;;;;30.75;17.48;;;;;;;-2.87;100.00;102463.31;4921919;28;20121;-69
2022/03/10 05:05:49;;;;;;;32.67;16.83;;;;;;;-2.87;100.00;102468.59;4904768;28;20154;-68
2022/03/10 05:08:14;;;;;;;35.30;17.95;;;;;;;-2.87;100.00;102468.59;4921277;28;22500;-69
2022/03/10 05:10:40;;;;;;;29.60;17.38;;;;;;;-2.93;100.00;102466.28;4903555;28;20765;-69
2022/03/10 05:13:05;;;;;;;31.40;17.35;;;;;;;-2.98;100.00;102477.09;4919389;28;20353;-68
2022/03/10 05:15:31;;;;;;;33.10;17.00;;;;;;;-2.99;100.00;102474.53;4901745;28;20042;-69
2022/03/10 05:18:01;;;;;;;33.28;17.35;;;;;;;-2.96;100.00;102469.09;4892033;28;20106;-68
2022/03/10 05:20:28;;;;;;;35.08;17.33;;;;;;;-2.92;100.00;102473.25;4919461;28;20169;-68
2022/03/10 05:22:55;;;;;;;31.70;17.08;;;;;;;-2.91;100.00;102472.34;4920221;28;20152;-68
2022/03/10 05:25:23;;;;;;;29.70;17.60;;;;;;;-2.87;100.00;102468.59;4893376;28;20031;-68
2022/03/10 05:27:49;;;;;;;32.13;16.95;;;;;;;-2.92;100.00;102474.09;4906011;28;20509;-69
2022/03/10 05:30:16;;;;;;;30.27;17.83;;;;;;;-3.01;100.00;102481.69;4926029;28;20031;-69
2022/03/10 05:32:41;;;;;;;30.52;17.58;;;;;;;-3.10;100.00;102479.56;4888858;28;20055;-68
2022/03/10 05:35:09;;;;;;;32.58;17.88;;;;;;;-3.13;100.00;102480.56;4924661;28;20146;-68
2022/03/10 05:37:36;;;;;;;30.05;18.48;;;;;;;-3.03;100.00;102476.50;4906047;28;20039;-67
2022/03/10 05:40:05;;;;;;;32.88;19.02;;;;;;;-2.85;100.00;102469.34;4920788;28;20038;-67
2022/03/10 05:42:30;;;;;;;31.75;17.80;;;;;;;-2.69;100.00;102467.56;4921146;28;20232;-67
2022/03/10 05:44:56;;;;;;;33.58;17.85;;;;;;;-2.37;100.00;102467.50;4903365;28;20453;-68
2022/03/10 05:47:21;;;;;;;33.03;18.27;;;;;;;-2.09;100.00;102476.44;4913323;28;20049;-68
2022/03/10 05:49:46;;;;;;;38.38;18.77;;;;;;;-1.87;100.00;102471.56;4902397;28;20051;-68
2022/03/10 05:52:12;;;;;;;39.13;18.08;;;;;;;-1.64;100.00;102478.13;4919539;28;20031;-67
2022/03/10 05:54:37;;;;;;;37.00;18.80;;;;;;;-1.49;100.00;102481.59;4905854;28;20603;-67
2022/03/10 05:57:03;;;;;;;31.58;17.60;;;;;;;-1.37;100.00;102480.88;4925129;28;20572;-67
2022/03/10 05:59:28;;;;;;;35.88;18.77;;;;;;;-1.27;100.00;102476.69;4907608;28;20048;-67
2022/03/10 06:01:54;;;;;;;29.02;17.42;;;;;;;-1.13;100.00;102481.09;4892698;28;20051;-67
2022/03/10 06:04:20;;;;;;;30.23;17.02;;;;;;;-1.04;100.00;102477.91;4922267;28;20043;-67
2022/03/10 06:06:45;;;;;;;29.27;16.42;;;;;;;-0.87;100.00;102479.47;4887040;28;20047;-67
2022/03/10 06:09:11;;;;;;;29.50;16.60;;;;;;;-0.83;100.00;102480.97;4936092;28;20035;-68
2022/03/10 06:11:37;;;;;;;28.17;17.15;;;;;;;-0.80;100.00;102480.78;4906431;28;20047;-67
2022/03/10 06:14:02;;;;;;;29.55;15.57;;;;;;;-0.69;100.00;102492.47;4912531;28;20090;-67
2022/03/10 06:16:28;;;;;;;34.05;16.40;;;;;;;-0.47;100.00;102487.47;4901853;28;20049;-67
2022/03/10 06:18:54;;;;;;;29.98;17.48;;;;;;;-0.11;100.00;102488.59;4921259;28;20134;-67
2022/03/10 06:21:21;;;;;;;32.42;16.10;;;;;;;0.08;100.00;102493.53;4921555;28;23594;-67
2022/03/10 06:23:49;;;;;;;39.97;18.42;;;;;;;0.26;100.00;102488.78;4904901;28;20582;-67
2022/03/10 06:26:15;;;;;;;26.80;15.55;;;;;;;0.43;100.00;102493.78;4921839;28;20066;-67
2022/03/10 06:28:41;;;;;;;26.08;15.95;;;;;;;0.61;100.00;102492.47;4909758;28;20050;-67
2022/03/10 06:31:06;;;;;;;32.17;15.93;;;;;;;0.87;100.00;102492.44;4936011;28;20126;-67
2022/03/10 06:33:33;;;;;;;30.83;16.10;;;;;;;1.30;100.00;102489.34;4906860;28;20058;-67
2022/03/10 06:35:58;;;;;;;25.27;15.52;;;;;;;1.96;100.00;102495.91;4918427;28;20039;-67
2022/03/10 06:38:24;;;;;;;30.33;17.63;;;;;;;2.61;100.00;102500.63;4904182;28;22697;-67
2022/03/10 06:40:49;;;;;;;29.08;16.17;;;;;;;3.20;100.00;102504.00;4921332;28;20039;-67
2022/03/10 06:43:16;;;;;;;30.55;16.38;;;;;;;3.61;86.67;102505.06;4920938;28;22608;-67
2022/03/10 06:45:42;;;;;;;25.35;15.38;;;;;;;3.99;78.71;102505.41;4907283;28;20050;-67
2022/03/10 06:48:07;;;;;;;25.98;15.50;;;;;;;4.28;71.79;102510.06;4919253;28;20042;-67
2022/03/10 06:50:33;;;;;;;26.13;15.43;;;;;;;4.62;69.21;102512.53;4907147;28;20150;-67
2022/03/10 06:52:58;;;;;;;26.42;17.45;;;;;;;4.91;66.83;102512.66;4919421;28;20034;-67
2022/03/10 06:55:24;;;;;;;23.92;16.25;;;;;;;5.12;64.34;102510.75;4906577;28;20058;-67
2022/03/10 06:57:51;;;;;;;25.08;16.20;;;;;;;5.15;62.10;102507.81;4919925;28;20122;-67
2022/03/10 07:00:17;;;;;;;24.15;15.60;;;;;;;5.02;63.09;102516.09;4915513;28;20762;-67
2022/03/10 07:02:42;;;;;;;26.42;16.02;;;;;;;5.12;61.86;102523.25;4909674;28;20146;-67
2022/03/10 07:05:08;;;;;;;26.48;15.50;;;;;;;5.26;62.07;102513.06;4904962;28;20125;-67
2022/03/10 07:07:34;;;;;;;24.88;15.38;;;;;;;5.71;60.41;102511.69;4907742;28;20047;-67
2022/03/10 07:10:00;;;;;;;26.30;14.50;;;;;;;5.94;59.10;102512.31;4921313;28;20490;-68
2022/03/10 07:12:28;;;;;;;25.30;14.70;;;;;;;6.02;58.27;102504.41;4906306;28;20047;-68
2022/03/10 07:14:53;;;;;;;28.15;14.98;;;;;;;6.11;57.59;102505.41;4921165;28;20114;-68
2022/03/10 07:17:19;;;;;;;22.73;15.15;;;;;;;6.28;57.42;102504.63;4919947;28;20539;-68
2022/03/10 07:19:45;;;;;;;25.00;14.32;;;;;;;6.65;55.70;102506.53;4919867;28;20031;-68
2022/03/10 07:22:12;;;;;;;24.35;15.50;;;;;;;6.75;56.09;102507.34;4911761;28;23525;-68
2022/03/10 07:24:37;;;;;;;27.48;14.95;;;;;;;7.01;54.98;102517.38;4911635;28;20090;-68
2022/03/10 07:27:03;;;;;;;23.35;14.68;;;;;;;7.16;53.89;102516.75;4920100;28;20054;-69
2022/03/10 07:29:28;;;;;;;24.73;14.60;;;;;;;7.36;53.16;102512.09;4905169;28;20055;-69
2022/03/10 07:31:54;;;;;;;25.55;15.27;;;;;;;7.29;52.91;102518.22;4921651;28;20117;-69
2022/03/10 07:34:19;;;;;;;27.05;15.63;;;;;;;7.50;52.71;102520.63;4906086;28;20057;-69
2022/03/10 07:36:45;;;;;;;24.92;15.15;;;;;;;7.75;52.49;102527.06;4921585;28;20047;-69
2022/03/10 07:39:10;;;;;;;20.40;14.57;;;;;;;7.68;52.33;102526.84;4905377;28;20055;-69
2022/03/10 07:41:36;;;;;;;28.02;15.63;;;;;;;7.60;52.97;102526.75;4920373;28;20050;-70
2022/03/10 07:44:01;;;;;;;25.48;16.45;;;;;;;7.58;52.52;102537.66;4920831;28;20146;-69
2022/03/10 07:46:27;;;;;;;27.10;15.82;;;;;;;7.54;52.72;102530.03;4905896;28;20054;-69
2022/03/10 07:48:52;;;;;;;28.98;14.88;;;;;;;7.67;53.11;102530.50;4920800;28;20045;-69
2022/03/10 07:51:18;;;;;;;28.42;15.50;;;;;;;7.87;53.12;102532.06;4905646;28;20050;-67
2022/03/10 07:53:44;;;;;;;29.02;15.48;;;;;;;8.22;51.49;102519.59;4920669;28;20031;-68
2022/03/10 07:56:09;;;;;;;24.58;15.30;;;;;;;8.62;50.87;102520.91;4904111;28;20515;-68
2022/03/10 07:58:35;;;;;;;22.38;15.55;;;;;;;8.90;50.27;102523.41;4921772;28;20039;-68
2022/03/10 08:01:00;;;;;;;25.73;15.88;;;;;;;8.88;49.74;102523.56;4900503;28;20143;-67
2022/03/10 08:03:25;;;;;;;25.60;15.80;;;;;;;8.90;50.69;102523.41;4923301;28;20042;-67
2022/03/10 08:05:52;;;;;;;24.77;15.60;;;;;;;9.11;49.52;102521.13;4922060;28;20042;-68
2022/03/10 08:08:17;;;;;;;26.13;15.57;;;;;;;9.15;49.55;102510.91;4904191;28;20090;-67
2022/03/10 08:10:43;;;;;;;26.83;15.27;;;;;;;9.27;49.67;102510.44;4922959;28;20141;-67
2022/03/10 08:13:08;;;;;;;24.95;15.30;;;;;;;9.46;49.94;102513.84;4891187;28;20047;-67
2022/03/10 08:15:34;;;;;;;22.95;15.30;;;;;;;9.67;49.37;102510.69;4923748;28;20121;-67
2022/03/10 08:18:00;;;;;;;21.95;15.20;;;;;;;9.87;49.15;102506.69;4916772;28;20054;-68
2022/03/10 08:20:25;;;;;;;23.08;14.80;;;;;;;9.85;48.51;102499.78;4914269;28;20035;-68
2022/03/10 08:22:51;;;;;;;24.08;15.80;;;;;;;9.93;48.42;102495.25;4909431;28;20035;-68
2022/03/10 08:25:17;;;;;;;21.23;14.82;;;;;;;10.18;48.49;102493.38;4896764;28;20046;-68
2022/03/10 08:27:49;;;;;;;25.40;16.48;;;;;;;10.34;47.51;102497.09;4907964;28;20070;-68
2022/03/10 08:30:15;;;;;;;26.13;15.85;;;;;;;10.35;46.86;102493.38;4890727;28;20051;-68
2022/03/10 08:32:44;;;;;;;22.52;15.82;;;;;;;10.56;46.72;102496.34;4923866;28;20043;-68
2022/03/10 08:35:11;;;;;;;23.25;14.77;;;;;;;10.77;46.05;102494.97;4909352;28;20189;-70
2022/03/10 08:37:36;;;;;;;26.15;14.27;;;;;;;10.75;46.34;102485.19;4922668;28;20054;-68
2022/03/10 08:40:03;;;;;;;20.33;15.05;;;;;;;10.90;46.51;102484.47;4907564;28;20055;-68
2022/03/10 08:42:28;;;;;;;25.63;16.63;;;;;;;10.84;45.95;102482.47;4927957;28;20137;-68
2022/03/10 08:44:54;;;;;;;22.65;15.23;;;;;;;11.01;45.84;102489.47;4915091;28;20435;-68
2022/03/10 08:47:19;;;;;;;24.27;15.88;;;;;;;10.93;46.05;102489.50;4913126;28;20047;-68
2022/03/10 08:49:44;;;;;;;21.67;15.88;;;;;;;11.07;45.57;102478.00;4923960;28;20046;-68
2022/03/10 08:52:11;;;;;;;22.85;15.82;;;;;;;11.36;45.15;102481.88;4909822;28;20074;-69
2022/03/10 08:54:36;;;;;;;26.30;15.35;;;;;;;11.45;44.80;102488.91;4923253;28;20525;-69
2022/03/10 08:57:02;;;;;;;22.30;14.27;;;;;;;11.36;45.76;102492.66;4910557;28;20067;-69
2022/03/10 08:59:27;;;;;;;23.25;15.23;;;;;;;11.66;45.74;102489.09;4919133;28;20632;-70
2022/03/10 09:01:53;;;;;;;20.50;14.48;;;;;;;11.90;45.21;102484.56;4908736;28;20063;-70
2022/03/10 09:04:18;;;;;;;25.02;14.40;;;;;;;12.13;43.83;102479.94;4923534;28;23559;-69
2022/03/10 09:06:44;;;;;;;24.02;15.25;;;;;;;12.01;44.11;102481.44;4919423;28;20046;-69
2022/03/10 09:09:09;;;;;;;20.38;15.77;;;;;;;12.34;44.26;102470.28;4910603;28;20050;-70
2022/03/10 09:11:34;;;;;;;21.92;14.70;;;;;;;12.21;42.50;102475.50;4922536;28;20027;-70
2022/03/10 09:14:00;;;;;;;21.45;15.48;;;;;;;12.08;42.94;102485.06;4905389;28;20050;-70
2022/03/10 09:16:25;;;;;;;21.70;15.27;;;;;;;12.21;43.29;102470.91;4920498;28;23959;-70
2022/03/10 09:18:51;;;;;;;19.08;14.85;;;;;;;12.40;43.05;102470.41;4903068;28;20612;-70
2022/03/10 09:21:17;;;;;;;28.25;15.25;;;;;;;12.32;43.01;102473.19;4922199;28;20616;-70
2022/03/10 09:23:43;;;;;;;21.30;14.75;;;;;;;12.31;42.90;102476.91;4905405;28;20051;-71
2022/03/10 09:26:08;;;;;;;22.48;14.63;;;;;;;12.39;42.42;102473.31;4920106;28;20042;-71
2022/03/10 09:28:34;;;;;;;23.90;14.48;;;;;;;12.43;42.50;102469.19;4923517;28;20047;-70
2022/03/10 09:31:00;;;;;;;20.65;14.30;;;;;;;12.48;41.77;102472.16;4897277;28;20050;-71
2022/03/10 09:33:25;;;;;;;20.95;14.55;;;;;;;12.25;43.12;102458.75;4920841;28;20828;-70
2022/03/10 09:35:51;;;;;;;19.65;14.05;;;;;;;12.40;42.37;102456.88;4904146;28;20162;-70
2022/03/10 09:38:17;;;;;;;23.55;15.27;;;;;;;12.46;42.30;102457.16;4926805;28;20046;-70
2022/03/10 09:40:43;;;;;;;18.88;14.40;;;;;;;12.45;42.78;102456.31;4887114;28;20053;-71
2022/03/10 09:43:09;;;;;;;22.23;13.55;;;;;;;12.69;41.10;102452.50;4920969;28;20046;-70
2022/03/10 09:45:36;;;;;;;19.55;13.45;;;;;;;12.79;40.84;102446.81;4909933;28;20403;-71
2022/03/10 09:48:02;;;;;;;20.27;14.13;;;;;;;12.58;42.21;102451.09;4921413;28;20056;-70
2022/03/10 09:50:28;;;;;;;22.75;15.15;;;;;;;12.65;41.86;102449.34;4920828;28;20058;-70
2022/03/10 09:52:53;;;;;;;19.92;13.60;;;;;;;12.89;41.10;102464.41;4908910;28;20098;-71
2022/03/10 09:55:19;;;;;;;19.38;14.35;;;;;;;12.77;40.53;102454.25;4937622;28;20058;-72
2022/03/10 09:57:45;;;;;;;22.65;14.43;;;;;;;12.63;40.43;102448.66;4906333;28;20138;-72
2022/03/10 10:00:14;;;;;;;20.52;14.98;;;;;;;12.82;39.86;102451.84;4921744;28;20126;-72
2022/03/10 10:02:40;;;;;;;20.35;14.15;;;;;;;12.41;40.62;102461.25;4918777;28;20059;-72
2022/03/10 10:05:22;;;;;;;23.08;13.65;;;;;;;12.82;39.85;102457.25;4919794;28;20231;-71
2022/03/10 10:08:22;;;;;;;18.75;13.73;;;;;;;13.43;39.08;102454.22;4904987;28;20926;-72
2022/03/10 10:10:49;;;;;;;22.63;14.05;;;;;;;13.51;37.30;102452.25;4872842;29;20096;-69
2022/03/10 10:13:27;;;;;;;18.23;12.77;;;;;;;13.21;37.81;102450.66;4904828;28;20054;-68
2022/03/10 10:16:01;;;;;;;19.95;13.27;;;;;;;13.40;37.79;102444.63;4921275;28;20035;-69
2022/03/10 10:18:28;;;;;;;18.58;13.85;;;;;;;13.52;37.61;102443.09;4920049;28;20031;-69
2022/03/10 10:20:56;;;;;;;18.85;13.63;;;;;;;13.78;38.18;102441.66;4904228;28;20051;-70
2022/03/10 10:23:21;;;;;;;17.48;14.18;;;;;;;14.18;37.07;102436.53;4919305;28;20166;-71
2022/03/10 10:26:08;;;;;;;18.77;13.85;;;;;;;14.05;38.47;102435.41;4903315;28;20051;-72
2022/03/10 10:28:36;;;;;;;21.52;14.18;;;;;;;14.35;37.53;102442.50;4924836;28;20063;-70
2022/03/10 10:31:07;;;;;;;23.20;14.70;;;;;;;14.56;37.01;102431.59;4906456;28;20054;-70
2022/03/10 10:33:35;;;;;;;18.58;13.70;;;;;;;14.84;36.17;102438.81;4919617;28;20201;-70
2022/03/10 10:36:14;;;;;;;19.88;14.88;;;;;;;14.63;36.72;102440.59;4896574;28;20499;-70
2022/03/10 10:38:41;;;;;;;19.17;14.63;;;;;;;14.68;36.09;102443.56;4921213;28;20113;-70
2022/03/10 10:41:18;;;;;;;20.10;14.63;;;;;;;14.46;36.49;102429.25;4907724;28;20034;-71
2022/03/10 10:43:49;;;;;;;19.58;15.00;;;;;;;14.83;36.09;102426.31;4922034;28;20149;-70
2022/03/10 10:46:44;;;;;;;20.83;13.82;;;;;;;14.65;35.82;102421.44;4934848;28;20030;-70
2022/03/10 10:49:11;;;;;;;23.88;14.50;;;;;;;14.76;36.82;102418.97;4923173;28;20142;-70
2022/03/10 10:51:54;;;;;;;20.60;15.70;;;;;;;14.79;35.57;102424.00;4923477;28;20039;-71
2022/03/10 10:54:19;;;;;;;19.27;14.88;;;;;;;14.77;36.25;102408.94;4908263;28;20121;-71
2022/03/10 10:56:46;;;;;;;18.25;13.98;;;;;;;15.13;35.30;102415.94;4921600;28;20038;-71
2022/03/10 10:59:35;;;;;;;22.52;14.55;;;;;;;15.43;35.59;102411.00;4910448;28;20047;-70
2022/03/10 11:02:17;;;;;;;24.17;15.15;;;;;;;15.72;34.54;102401.66;4905044;28;20039;-70
2022/03/10 11:04:46;;;;;;;20.00;15.05;;;;;;;15.92;35.03;102402.47;4902379;28;20101;-71
2022/03/10 11:07:12;;;;;;;18.88;14.52;;;;;;;16.34;34.10;102397.59;4918983;28;20031;-70
2022/03/10 11:09:40;;;;;;;21.30;14.93;;;;;;;16.25;32.90;102401.63;4886875;28;20174;-70